Time;durP1;ratioP1;P1;durP2;ratioP2;P2;SDS_P1;SDS_P2;PMS_P1;PMS_P2;Temp;Humidity;BMP_temperature;BMP_pressure;BME280_temperature;BME280_humidity;BME280_pressure;Samples;Min_cycle;Max_cycle;Signal;HPM_P1;HPM_P2
2023/03/10 00:00:23;;;;;;;0.30;0.30;;;-2.50;99.90;;;;;;5054462;28;20017;-75
2023/03/10 00:02:49;;;;;;;0.20;0.20;;;-2.50;99.90;;;;;;5054008;28;20028;-75
2023/03/10 00:05:17;;;;;;;0.30;0.30;;;-2.60;99.90;;;;;;5053694;28;20032;-75
2023/03/10 00:07:43;;;;;;;0.20;0.20;;;-2.60;99.90;;;;;;5053593;28;20066;-75
2023/03/10 00:10:13;;;;;;;0.30;0.30;;;-2.70;99.90;;;;;;5035701;28;20048;-75
2023/03/10 00:12:39;;;;;;;0.20;0.20;;;-2.60;99.90;;;;;;5053412;28;20029;-75
2023/03/10 00:15:07;;;;;;;0.30;0.30;;;-2.60;99.90;;;;;;5035690;28;20404;-76
2023/03/10 00:17:32;;;;;;;0.20;0.20;;;-2.60;99.90;;;;;;5053394;28;20017;-76
2023/03/10 00:19:58;;;;;;;0.25;0.25;;;-2.60;99.90;;;;;;5053437;28;20028;-75
2023/03/10 00:22:23;;;;;;;0.20;0.20;;;-2.60;99.90;;;;;;5053418;28;20021;-75
2023/03/10 00:24:49;;;;;;;0.30;0.30;;;-2.60;99.90;;;;;;5035494;28;20036;-75
2023/03/10 00:27:14;;;;;;;0.30;0.30;;;-2.60;99.90;;;;;;5053418;28;20079;-75
2023/03/10 00:29:40;;;;;;;0.30;0.30;;;-2.60;99.90;;;;;;5053248;28;20025;-75
2023/03/10 00:32:06;;;;;;;0.30;0.30;;;-2.60;99.90;;;;;;5035381;28;20496;-75
2023/03/10 00:34:31;;;;;;;0.30;0.30;;;-2.50;99.90;;;;;;5053247;28;20025;-76
2023/03/10 00:36:57;;;;;;;0.30;0.30;;;-2.60;99.90;;;;;;5035419;28;20021;-76
2023/03/10 00:39:22;;;;;;;0.30;0.30;;;-2.60;99.90;;;;;;5053137;28;20398;-76
2023/03/10 00:41:48;;;;;;;0.20;0.20;;;-2.60;99.90;;;;;;5053175;28;20028;-76
2023/03/10 00:44:14;;;;;;;0.25;0.25;;;-2.50;99.90;;;;;;5053203;28;20032;-75
2023/03/10 00:46:40;;;;;;;0.20;0.20;;;-2.60;99.90;;;;;;5053626;28;20036;-75
2023/03/10 00:49:07;;;;;;;0.30;0.30;;;-2.60;99.90;;;;;;5052872;28;20047;-76
2023/03/10 00:51:34;;;;;;;0.30;0.30;;;-2.60;99.90;;;;;;5052961;28;20389;-75
2023/03/10 00:54:01;;;;;;;0.30;0.30;;;-2.70;99.90;;;;;;5035200;28;20052;-75
2023/03/10 00:56:27;;;;;;;0.20;0.20;;;-2.70;99.90;;;;;;5052993;28;20436;-75
2023/03/10 00:58:55;;;;;;;0.30;0.30;;;-2.80;99.90;;;;;;5035016;28;20385;-75
2023/03/10 01:01:27;;;;;;;0.40;0.40;;;-2.80;99.90;;;;;;5052920;28;20025;-76
2023/03/10 01:03:54;;;;;;;0.30;0.30;;;-2.80;99.90;;;;;;5035074;28;20440;-75
2023/03/10 01:06:21;;;;;;;0.30;0.30;;;-2.70;99.90;;;;;;5035055;28;20033;-76
2023/03/10 01:08:47;;;;;;;0.28;0.28;;;-2.70;99.90;;;;;;5052800;28;20379;-76
2023/03/10 01:11:21;;;;;;;0.40;0.40;;;-2.70;99.90;;;;;;5034919;28;20032;-75
2023/03/10 01:13:48;;;;;;;1.00;1.00;;;-2.80;99.90;;;;;;5052823;28;20051;-75
2023/03/10 01:16:14;;;;;;;0.22;0.22;;;-2.80;99.90;;;;;;5052851;28;20033;-75
2023/03/10 01:18:39;;;;;;;0.45;0.45;;;-2.90;99.90;;;;;;5052829;28;20082;-75
2023/03/10 01:21:06;;;;;;;0.65;0.65;;;-2.90;99.90;;;;;;5052775;28;20025;-76
2023/03/10 01:23:31;;;;;;;0.40;0.40;;;-3.00;99.90;;;;;;5035367;28;20025;-75
2023/03/10 01:25:57;;;;;;;0.30;0.30;;;-3.00;99.90;;;;;;5056772;28;20158;-75
2023/03/10 01:28:22;;;;;;;0.28;0.28;;;-3.00;99.90;;;;;;5056608;28;20478;-75
2023/03/10 01:30:48;;;;;;;0.22;0.22;;;-3.10;99.90;;;;;;5056826;28;20036;-76
2023/03/10 01:33:16;;;;;;;0.30;0.30;;;-3.00;99.90;;;;;;5056601;28;20454;-75
2023/03/10 01:35:42;;;;;;;0.30;0.30;;;-3.00;99.90;;;;;;5038636;28;20029;-76
2023/03/10 01:38:08;;;;;;;0.30;0.30;;;-3.00;99.90;;;;;;5056473;28;20375;-75
2023/03/10 01:40:35;;;;;;;0.30;0.30;;;-3.00;99.90;;;;;;5056735;28;20025;-75
2023/03/10 01:43:19;;;;;;;0.20;0.20;;;-3.00;99.90;;;;;;5039061;28;20052;-75
2023/03/10 01:45:45;;;;;;;0.30;0.30;;;-3.00;99.90;;;;;;5056358;28;20029;-75
2023/03/10 01:48:15;;;;;;;0.30;0.30;;;-3.00;99.90;;;;;;5038401;28;20025;-75
2023/03/10 01:50:44;;;;;;;0.25;0.25;;;-3.10;99.90;;;;;;5056350;28;20112;-75
2023/03/10 01:53:10;;;;;;;0.30;0.30;;;-3.10;99.90;;;;;;5056425;28;20547;-75
2023/03/10 01:55:46;;;;;;;0.20;0.20;;;-3.10;99.90;;;;;;5056407;28;20056;-75
2023/03/10 01:58:12;;;;;;;0.30;0.30;;;-3.00;99.90;;;;;;5056342;28;20032;-75
2023/03/10 02:00:40;;;;;;;0.20;0.20;;;-2.90;99.90;;;;;;5056145;28;20061;-75
2023/03/10 02:03:25;;;;;;;0.30;0.30;;;-2.90;99.90;;;;;;5038142;28;20035;-75
2023/03/10 02:05:55;;;;;;;0.20;0.20;;;-2.90;99.90;;;;;;5056280;28;20032;-75
2023/03/10 02:08:22;;;;;;;0.22;0.22;;;-2.90;99.90;;;;;;5056103;28;20025;-76
2023/03/10 02:10:49;;;;;;;0.30;0.30;;;-2.90;99.90;;;;;;5055829;28;20032;-75
2023/03/10 02:13:15;;;;;;;0.28;0.28;;;-2.90;99.90;;;;;;5055771;28;20397;-75
2023/03/10 02:15:40;;;;;;;0.20;0.20;;;-2.90;99.90;;;;;;5055790;28;20025;-75
2023/03/10 02:18:08;;;;;;;0.30;0.30;;;-2.80;99.90;;;;;;5037848;28;20053;-75
2023/03/10 02:21:11;;;;;;;0.30;0.30;;;-2.90;99.90;;;;;;5055754;28;20115;-75
2023/03/10 02:23:59;;;;;;;0.30;0.30;;;-2.90;99.90;;;;;;5056286;28;20017;-75
2023/03/10 02:26:51;;;;;;;0.25;0.25;;;-2.90;99.90;;;;;;5055961;28;20537;-75
2023/03/10 02:29:27;;;;;;;0.20;0.20;;;-2.80;99.90;;;;;;5055557;28;20079;-75
2023/03/10 02:31:55;;;;;;;0.30;0.30;;;-2.80;99.90;;;;;;5055483;28;20025;-75
2023/03/10 02:34:22;;;;;;;0.30;0.30;;;-2.70;99.90;;;;;;5055301;28;20029;-76
2023/03/10 02:36:48;;;;;;;0.30;0.30;;;-2.70;99.90;;;;;;5054500;28;20433;-76
2023/03/10 02:39:13;;;;;;;0.20;0.20;;;-2.70;99.90;;;;;;5037461;28;20017;-76
2023/03/10 02:41:40;;;;;;;0.30;0.30;;;-2.80;99.90;;;;;;5037399;28;20490;-75
2023/03/10 02:44:10;;;;;;;0.30;0.30;;;-2.80;99.90;;;;;;5055335;28;20025;-75
2023/03/10 02:46:35;;;;;;;0.30;0.30;;;-2.80;99.90;;;;;;5037741;28;20032;-75
2023/03/10 02:49:03;;;;;;;0.30;0.30;;;-2.90;99.90;;;;;;5055114;28;20033;-76
2023/03/10 02:51:34;;;;;;;0.30;0.30;;;-2.90;99.90;;;;;;5055071;28;20402;-75
2023/03/10 02:54:00;;;;;;;0.30;0.30;;;-2.90;99.90;;;;;;5055120;28;20490;-75
2023/03/10 02:56:26;;;;;;;0.30;0.30;;;-2.90;99.90;;;;;;5055658;28;20484;-76
2023/03/10 02:58:52;;;;;;;0.30;0.30;;;-2.80;99.90;;;;;;5055044;28;20024;-75
2023/03/10 03:01:18;;;;;;;0.30;0.30;;;-2.60;99.90;;;;;;5037107;28;20075;-75
2023/03/10 03:03:43;;;;;;;0.28;0.28;;;-2.50;99.90;;;;;;5054913;28;20459;-75
2023/03/10 03:06:10;;;;;;;0.50;0.50;;;-2.50;99.90;;;;;;5054898;28;20036;-75
2023/03/10 03:08:35;;;;;;;0.20;0.20;;;-2.50;99.90;;;;;;5036902;28;20027;-76
2023/03/10 03:11:01;;;;;;;5.72;5.38;;;-2.50;99.90;;;;;;5055047;28;20096;-76
2023/03/10 03:13:27;;;;;;;4.93;4.30;;;-2.50;99.90;;;;;;5055003;28;20444;-75
2023/03/10 03:15:52;;;;;;;1.75;1.48;;;-2.50;99.90;;;;;;5037070;28;20025;-76
2023/03/10 03:18:18;;;;;;;2.30;1.42;;;-2.50;99.90;;;;;;5054556;28;20021;-75
2023/03/10 03:20:43;;;;;;;0.50;0.50;;;-2.40;99.90;;;;;;5054626;28;20028;-75
2023/03/10 03:23:09;;;;;;;1.05;1.05;;;-2.40;99.90;;;;;;5054525;28;20025;-75
2023/03/10 03:25:37;;;;;;;1.83;1.73;;;-2.30;99.90;;;;;;5054466;28;20029;-75
2023/03/10 03:28:04;;;;;;;0.52;0.52;;;-2.20;99.90;;;;;;5036486;28;20031;-75
2023/03/10 03:30:30;;;;;;;0.57;0.57;;;-2.10;99.90;;;;;;5054308;28;20036;-75
2023/03/10 03:32:56;;;;;;;1.25;1.25;;;-2.00;99.90;;;;;;5036513;28;20029;-75
2023/03/10 03:35:26;;;;;;;3.13;2.95;;;-2.00;99.90;;;;;;5054290;28;20028;-76
2023/03/10 03:37:52;;;;;;;1.05;1.05;;;-2.00;99.90;;;;;;5054131;28;20025;-75
2023/03/10 03:40:19;;;;;;;0.65;0.65;;;-2.00;99.90;;;;;;5036323;28;20025;-75
2023/03/10 03:42:47;;;;;;;0.60;0.60;;;-2.00;99.90;;;;;;5054132;28;20021;-75
2023/03/10 03:45:15;;;;;;;0.50;0.50;;;-2.10;99.90;;;;;;5054002;28;20536;-75
2023/03/10 03:47:40;;;;;;;0.30;0.30;;;-2.10;99.90;;;;;;5035617;28;20033;-75
2023/03/10 03:50:07;;;;;;;0.20;0.20;;;-2.10;99.90;;;;;;5054686;28;20039;-75
2023/03/10 03:52:33;;;;;;;0.22;0.22;;;-2.00;99.90;;;;;;5053845;28;20083;-75
2023/03/10 03:54:59;;;;;;;0.30;0.30;;;-2.00;99.90;;;;;;5036314;28;20032;-75
2023/03/10 03:57:25;;;;;;;0.38;0.38;;;-1.90;99.90;;;;;;5035997;28;20112;-75
2023/03/10 03:59:51;;;;;;;0.30;0.30;;;-2.00;99.90;;;;;;5053841;28;20025;-76
2023/03/10 04:02:17;;;;;;;0.28;0.28;;;-2.00;99.90;;;;;;5035914;28;20036;-75
2023/03/10 04:04:42;;;;;;;0.30;0.30;;;-2.00;99.90;;;;;;5054028;28;20025;-75
2023/03/10 04:07:08;;;;;;;0.30;0.30;;;-2.10;99.90;;;;;;5035872;28;20112;-76
2023/03/10 04:09:34;;;;;;;0.30;0.30;;;-2.10;99.90;;;;;;5035724;28;20025;-76
2023/03/10 04:11:59;;;;;;;0.50;0.50;;;-2.10;99.90;;;;;;5053591;28;20028;-75
2023/03/10 04:14:25;;;;;;;1.35;1.33;;;-2.10;99.90;;;;;;5035764;28;20028;-75
2023/03/10 04:16:50;;;;;;;0.60;0.60;;;-2.10;99.90;;;;;;5035753;28;20512;-76
2023/03/10 04:19:16;;;;;;;0.35;0.35;;;-2.10;99.90;;;;;;5053489;28;20025;-76
2023/03/10 04:21:41;;;;;;;0.40;0.40;;;-2.10;99.90;;;;;;5053472;28;20106;-75
2023/03/10 04:24:07;;;;;;;0.70;0.70;;;-2.10;99.90;;;;;;5053744;28;20033;-76
2023/03/10 04:26:32;;;;;;;0.40;0.40;;;-2.00;99.90;;;;;;5035566;28;20025;-75
2023/03/10 04:28:58;;;;;;;14.07;3.80;;;-2.00;99.90;;;;;;5053278;28;20032;-76
2023/03/10 04:31:24;;;;;;;0.30;0.30;;;-1.90;99.90;;;;;;5053304;28;20032;-75
2023/03/10 04:33:51;;;;;;;0.40;0.40;;;-1.70;99.90;;;;;;5053419;28;20418;-76
2023/03/10 04:36:18;;;;;;;0.30;0.30;;;-1.70;99.90;;;;;;5035420;28;20464;-75
2023/03/10 04:38:44;;;;;;;0.28;0.28;;;-1.80;99.90;;;;;;5035290;28;20021;-76
2023/03/10 04:41:09;;;;;;;0.30;0.30;;;-1.90;99.90;;;;;;5053226;28;20036;-76
2023/03/10 04:43:36;;;;;;;0.20;0.20;;;-1.90;99.90;;;;;;5035538;28;20032;-76
2023/03/10 04:46:01;;;;;;;0.30;0.30;;;-1.90;99.90;;;;;;5035225;28;20028;-76
2023/03/10 04:48:28;;;;;;;0.30;0.30;;;-1.90;99.90;;;;;;5052899;28;20043;-76
2023/03/10 04:50:55;;;;;;;0.32;0.32;;;-1.90;99.90;;;;;;5053321;28;20025;-75
2023/03/10 04:53:20;;;;;;;0.30;0.30;;;-1.90;99.90;;;;;;5035184;28;20021;-76
2023/03/10 04:55:46;;;;;;;0.20;0.20;;;-1.80;99.90;;;;;;5035146;28;20028;-75
2023/03/10 04:58:11;;;;;;;0.30;0.30;;;-1.80;99.90;;;;;;5052166;28;20017;-76
2023/03/10 05:00:39;;;;;;;0.30;0.30;;;-1.80;99.90;;;;;;5053503;28;20029;-76
2023/03/10 05:03:04;;;;;;;0.30;0.30;;;-1.70;99.90;;;;;;5035045;28;20028;-76
2023/03/10 05:05:33;;;;;;;0.30;0.30;;;-1.80;99.90;;;;;;5052957;28;20478;-76
2023/03/10 05:07:58;;;;;;;0.35;0.35;;;-1.80;99.90;;;;;;5053049;28;20029;-76
2023/03/10 05:10:24;;;;;;;0.30;0.30;;;-1.90;99.90;;;;;;5052786;28;20024;-76
2023/03/10 05:12:50;;;;;;;0.55;0.55;;;-1.80;99.90;;;;;;5052955;28;20033;-76
2023/03/10 05:15:15;;;;;;;0.40;0.40;;;-1.80;99.90;;;;;;5052856;28;20064;-75
2023/03/10 05:17:41;;;;;;;0.50;0.50;;;-1.80;99.90;;;;;;5052691;28;20047;-75
2023/03/10 05:20:08;;;;;;;0.35;0.35;;;-1.90;99.90;;;;;;5052781;28;20029;-76
2023/03/10 05:22:35;;;;;;;0.38;0.38;;;-1.90;99.90;;;;;;5052140;28;20074;-76
2023/03/10 05:25:00;;;;;;;0.50;0.50;;;-1.90;99.90;;;;;;5035176;28;20444;-76
2023/03/10 05:27:26;;;;;;;0.75;0.75;;;-1.80;99.90;;;;;;5052909;28;20086;-76
2023/03/10 05:29:51;;;;;;;0.40;0.40;;;-1.70;99.90;;;;;;5052686;28;20032;-75
2023/03/10 05:32:17;;;;;;;0.30;0.30;;;-1.60;99.90;;;;;;5052586;28;20033;-75
2023/03/10 05:34:42;;;;;;;0.57;0.57;;;-1.70;99.90;;;;;;5052659;28;20039;-75
2023/03/10 05:37:08;;;;;;;0.43;0.43;;;-1.70;99.90;;;;;;5052666;28;20021;-75
2023/03/10 05:39:33;;;;;;;0.20;0.20;;;-1.70;99.90;;;;;;5034734;28;20025;-75
2023/03/10 05:41:59;;;;;;;0.30;0.30;;;-1.70;99.90;;;;;;5034839;28;20472;-75
2023/03/10 05:44:24;;;;;;;0.85;0.82;;;-1.70;99.90;;;;;;5052663;28;20040;-75
2023/03/10 05:46:50;;;;;;;0.30;0.30;;;-1.70;99.90;;;;;;5034946;28;20124;-75
2023/03/10 05:49:15;;;;;;;0.40;0.40;;;-1.60;99.90;;;;;;5052317;28;20040;-76
2023/03/10 05:51:42;;;;;;;0.60;0.60;;;-1.50;99.90;;;;;;5052407;28;20029;-75
2023/03/10 05:54:08;;;;;;;1.55;1.38;;;-1.50;99.90;;;;;;5052488;28;20025;-75
2023/03/10 05:56:34;;;;;;;0.20;0.20;;;-1.50;99.90;;;;;;5052430;28;20437;-75
2023/03/10 05:58:59;;;;;;;0.55;0.55;;;-1.50;99.90;;;;;;5052365;28;20029;-75
2023/03/10 06:01:25;;;;;;;0.30;0.30;;;-1.50;99.90;;;;;;5052422;28;20021;-76
2023/03/10 06:03:50;;;;;;;0.40;0.40;;;-1.50;99.90;;;;;;5034465;28;20025;-75
2023/03/10 06:06:16;;;;;;;0.60;0.60;;;-1.40;99.90;;;;;;5052372;28;20025;-75
2023/03/10 06:08:41;;;;;;;0.40;0.40;;;-1.30;99.90;;;;;;5034728;28;20078;-76
2023/03/10 06:11:07;;;;;;;0.45;0.45;;;-1.20;99.90;;;;;;5055631;28;20028;-75
2023/03/10 06:13:33;;;;;;;0.40;0.40;;;-1.30;99.90;;;;;;5038009;28;20083;-75
2023/03/10 06:16:01;;;;;;;4.75;1.00;;;-1.20;99.90;;;;;;5037947;28;20028;-75
2023/03/10 06:18:28;;;;;;;0.45;0.45;;;-1.00;99.90;;;;;;5037825;28;20501;-75
2023/03/10 06:20:54;;;;;;;0.30;0.30;;;-0.90;99.90;;;;;;5055728;28;20029;-75
2023/03/10 06:23:21;;;;;;;0.50;0.50;;;-0.90;99.90;;;;;;5055793;28;20052;-75
2023/03/10 06:25:59;;;;;;;0.30;0.30;;;-0.80;99.90;;;;;;5055644;28;20037;-75
2023/03/10 06:28:31;;;;;;;0.30;0.30;;;-0.80;99.90;;;;;;5055526;28;20108;-75
2023/03/10 06:30:57;;;;;;;0.30;0.30;;;-0.80;99.90;;;;;;5055758;28;20033;-75
2023/03/10 06:33:24;;;;;;;0.40;0.40;;;-0.80;99.90;;;;;;5055550;28;20029;-75
2023/03/10 06:35:49;;;;;;;0.28;0.28;;;-0.80;99.90;;;;;;5055740;28;20025;-75
2023/03/10 06:38:15;;;;;;;0.20;0.20;;;-0.80;99.90;;;;;;5055538;28;20071;-75
2023/03/10 06:40:41;;;;;;;0.20;0.20;;;-0.80;99.90;;;;;;5037471;28;20025;-75
2023/03/10 06:43:06;;;;;;;0.30;0.30;;;-0.80;99.90;;;;;;5037473;28;20017;-75
2023/03/10 06:45:32;;;;;;;0.30;0.30;;;-0.80;99.90;;;;;;5055283;28;20021;-75
2023/03/10 06:47:57;;;;;;;0.25;0.25;;;-0.80;99.90;;;;;;5037299;28;20025;-75
2023/03/10 06:50:23;;;;;;;0.22;0.22;;;-0.90;99.90;;;;;;5055273;28;20044;-75
2023/03/10 06:52:48;;;;;;;0.50;0.50;;;-0.80;99.90;;;;;;5055159;28;20066;-75
2023/03/10 06:55:15;;;;;;;0.30;0.30;;;-0.80;99.90;;;;;;5037239;28;20017;-75
2023/03/10 06:57:41;;;;;;;0.22;0.22;;;-0.70;99.90;;;;;;5055009;28;20028;-75
2023/03/10 07:00:10;;;;;;;0.20;0.20;;;-0.70;99.90;;;;;;5055263;28;20021;-75
2023/03/10 07:02:37;;;;;;;0.30;0.30;;;-0.70;99.90;;;;;;5055189;28;20079;-75
2023/03/10 07:05:03;;;;;;;0.30;0.30;;;-0.60;99.90;;;;;;5037099;28;20031;-75
2023/03/10 07:07:29;;;;;;;0.20;0.20;;;-0.50;99.90;;;;;;5054815;28;20021;-75
2023/03/10 07:09:56;;;;;;;0.20;0.20;;;-0.40;99.90;;;;;;5055102;28;20082;-75
2023/03/10 07:12:22;;;;;;;0.30;0.30;;;-0.40;99.90;;;;;;5054751;28;20025;-75
2023/03/10 07:14:48;;;;;;;4.97;4.57;;;-0.40;99.90;;;;;;5054808;28;20044;-75
2023/03/10 07:17:14;;;;;;;0.15;0.15;;;-0.30;99.90;;;;;;5054680;28;20463;-75
2023/03/10 07:19:39;;;;;;;0.82;0.82;;;-0.30;99.90;;;;;;5054566;28;20032;-75
2023/03/10 07:22:05;;;;;;;0.30;0.30;;;-0.30;99.90;;;;;;5053775;28;20017;-75
2023/03/10 07:24:30;;;;;;;0.45;0.45;;;-0.20;99.90;;;;;;5036766;28;20496;-74
2023/03/10 07:26:59;;;;;;;0.30;0.30;;;-0.10;99.90;;;;;;5054629;28;20037;-75
2023/03/10 07:29:24;;;;;;;0.38;0.38;;;0.00;99.90;;;;;;5036503;28;20025;-75
2023/03/10 07:31:51;;;;;;;0.20;0.20;;;0.10;99.90;;;;;;5036553;28;20040;-75
2023/03/10 07:34:16;;;;;;;0.20;0.20;;;0.20;99.90;;;;;;5036477;28;20395;-75
2023/03/10 07:36:42;;;;;;;0.20;0.20;;;0.20;99.90;;;;;;5054292;28;20021;-75
2023/03/10 07:39:08;;;;;;;0.32;0.32;;;0.20;99.90;;;;;;5054365;28;20021;-75
2023/03/10 07:41:33;;;;;;;0.80;0.80;;;0.20;99.90;;;;;;5054207;28;20033;-76
2023/03/10 07:43:59;;;;;;;0.40;0.40;;;0.20;99.90;;;;;;5054212;28;20021;-75
2023/03/10 07:46:25;;;;;;;0.20;0.20;;;0.30;99.90;;;;;;5036295;28;20025;-75
2023/03/10 07:48:51;;;;;;;0.20;0.20;;;0.40;99.90;;;;;;5053894;28;20457;-75
2023/03/10 07:51:17;;;;;;;0.40;0.40;;;0.50;99.90;;;;;;5053944;28;20027;-75
2023/03/10 07:53:43;;;;;;;0.30;0.30;;;0.70;99.90;;;;;;5036156;28;20112;-76
2023/03/10 07:56:11;;;;;;;0.20;0.20;;;0.80;99.90;;;;;;5053933;28;20028;-76
2023/03/10 07:58:37;;;;;;;0.30;0.30;;;1.00;99.90;;;;;;5054132;28;20062;-75
2023/03/10 08:01:03;;;;;;;0.30;0.30;;;1.20;99.90;;;;;;5053893;28;20163;-75
2023/03/10 08:03:29;;;;;;;0.30;0.30;;;1.40;99.90;;;;;;5053840;28;20480;-75
2023/03/10 08:05:54;;;;;;;0.20;0.20;;;1.60;99.90;;;;;;5035914;28;20024;-75
2023/03/10 08:08:20;;;;;;;0.13;0.13;;;1.80;99.90;;;;;;5053646;28;20486;-75
2023/03/10 08:10:46;;;;;;;0.22;0.22;;;1.80;99.90;;;;;;5054160;28;20036;-75
2023/03/10 08:13:12;;;;;;;0.20;0.20;;;1.80;99.90;;;;;;5035762;28;20017;-76
2023/03/10 08:15:38;;;;;;;0.40;0.40;;;1.90;99.90;;;;;;5053582;28;20425;-75
2023/03/10 08:18:06;;;;;;;0.20;0.20;;;1.90;99.90;;;;;;5053894;28;20021;-75
2023/03/10 08:20:33;;;;;;;0.20;0.20;;;2.00;99.90;;;;;;5035657;28;20432;-76
2023/03/10 08:22:59;;;;;;;0.25;0.25;;;2.10;99.90;;;;;;5035683;28;20049;-76
2023/03/10 08:25:24;;;;;;;10.40;2.05;;;2.30;99.90;;;;;;5053451;28;20512;-76
2023/03/10 08:27:50;;;;;;;0.30;0.30;;;2.40;99.90;;;;;;5053647;28;20398;-76
2023/03/10 08:30:16;;;;;;;0.25;0.25;;;2.40;99.90;;;;;;5053387;28;20482;-76
2023/03/10 08:32:41;;;;;;;0.20;0.20;;;2.60;99.90;;;;;;5053686;28;20439;-76
2023/03/10 08:35:07;;;;;;;0.15;0.15;;;2.70;99.90;;;;;;5053291;28;20021;-76
2023/03/10 08:37:33;;;;;;;1.75;1.65;;;2.80;99.90;;;;;;5053464;28;20036;-76
2023/03/10 08:39:59;;;;;;;0.30;0.30;;;2.90;99.90;;;;;;5035383;28;20056;-76
2023/03/10 08:42:25;;;;;;;0.20;0.20;;;2.80;99.90;;;;;;5053215;28;20100;-76
2023/03/10 08:44:54;;;;;;;0.20;0.20;;;2.90;99.90;;;;;;5053175;28;20071;-76
2023/03/10 08:47:22;;;;;;;0.30;0.30;;;3.10;99.90;;;;;;5053335;28;20025;-76
2023/03/10 08:49:47;;;;;;;0.30;0.30;;;3.20;99.90;;;;;;5035190;28;20055;-76
2023/03/10 08:52:13;;;;;;;0.30;0.30;;;3.20;99.90;;;;;;5053255;28;20478;-76
2023/03/10 08:54:38;;;;;;;0.20;0.20;;;3.30;99.90;;;;;;5053059;28;20104;-76
2023/03/10 08:57:04;;;;;;;0.30;0.30;;;3.30;99.90;;;;;;5035423;28;20367;-76
2023/03/10 08:59:30;;;;;;;0.20;0.20;;;3.50;99.90;;;;;;5035763;28;20032;-76
2023/03/10 09:01:55;;;;;;;0.20;0.20;;;3.70;99.90;;;;;;5053267;28;20029;-76
2023/03/10 09:04:21;;;;;;;0.70;0.55;;;3.80;99.90;;;;;;5053061;28;20032;-76
2023/03/10 09:06:46;;;;;;;0.20;0.20;;;4.00;99.90;;;;;;5053000;28;20025;-76
2023/03/10 09:09:12;;;;;;;0.38;0.38;;;4.10;99.90;;;;;;5052869;28;20021;-76
2023/03/10 09:11:40;;;;;;;0.30;0.30;;;4.40;99.90;;;;;;5053077;28;20025;-76
2023/03/10 09:14:06;;;;;;;1.17;0.40;;;4.50;99.90;;;;;;5035010;28;20492;-76
2023/03/10 09:16:32;;;;;;;0.25;0.25;;;4.40;99.90;;;;;;5035002;28;20017;-76
2023/03/10 09:18:59;;;;;;;1.05;1.05;;;4.30;99.90;;;;;;5035006;28;20025;-76
2023/03/10 09:21:26;;;;;;;0.20;0.20;;;4.40;99.90;;;;;;5052837;28;20025;-76
2023/03/10 09:23:52;;;;;;;0.30;0.30;;;4.60;99.90;;;;;;5052851;28;20025;-76
2023/03/10 09:26:19;;;;;;;0.70;0.70;;;4.50;99.90;;;;;;5053320;28;20074;-75
2023/03/10 09:28:48;;;;;;;0.30;0.30;;;4.40;99.90;;;;;;5053042;28;20029;-75
2023/03/10 09:31:21;;;;;;;0.20;0.20;;;4.40;99.90;;;;;;5053052;28;20017;-75
2023/03/10 09:33:48;;;;;;;0.45;0.45;;;4.30;99.90;;;;;;5035439;28;20471;-76
2023/03/10 09:36:13;;;;;;;0.30;0.30;;;4.20;99.90;;;;;;5034773;28;20025;-76
2023/03/10 09:38:40;;;;;;;0.57;0.57;;;4.10;99.90;;;;;;5052493;28;20053;-76
2023/03/10 09:41:28;;;;;;;0.20;0.20;;;3.90;99.90;;;;;;5052646;28;20111;-76
2023/03/10 09:44:01;;;;;;;0.30;0.30;;;3.70;99.90;;;;;;5052628;28;20410;-76
2023/03/10 09:46:37;;;;;;;0.20;0.20;;;3.50;99.90;;;;;;5056449;28;20103;-76
2023/03/10 09:49:07;;;;;;;0.30;0.30;;;3.40;99.90;;;;;;5056395;28;20053;-76
2023/03/10 09:51:34;;;;;;;0.30;0.30;;;3.40;99.90;;;;;;5056792;28;20033;-76
2023/03/10 09:54:32;;;;;;;0.20;0.20;;;3.40;99.90;;;;;;5059105;28;20024;-76
2023/03/10 09:56:59;;;;;;;0.20;0.20;;;3.70;99.90;;;;;;5058313;28;20021;-76
2023/03/10 09:59:36;;;;;;;0.38;0.38;;;4.20;99.90;;;;;;5058252;28;20106;-76
2023/03/10 10:02:14;;;;;;;0.22;0.22;;;4.50;99.90;;;;;;5058206;28;20029;-76
2023/03/10 10:04:41;;;;;;;0.63;0.63;;;4.60;99.90;;;;;;5058923;28;20036;-76
2023/03/10 10:07:16;;;;;;;0.20;0.20;;;4.90;99.90;;;;;;5040155;28;20096;-76
2023/03/10 10:09:56;;;;;;;4.75;4.45;;;5.30;99.90;;;;;;5058388;28;20470;-76
2023/03/10 10:12:25;;;;;;;2.35;2.25;;;5.60;99.90;;;;;;5058344;28;20557;-76
2023/03/10 10:14:57;;;;;;;0.80;0.80;;;5.90;99.90;;;;;;5040665;28;20398;-76
2023/03/10 10:17:47;;;;;;;1.23;1.23;;;6.20;99.90;;;;;;5057230;28;20017;-76
2023/03/10 10:20:41;;;;;;;0.43;0.43;;;6.40;99.90;;;;;;5038730;28;20108;-76
2023/03/10 10:23:34;;;;;;;1.00;1.00;;;6.80;99.90;;;;;;5034850;28;20033;-76
2023/03/10 10:26:11;;;;;;;0.47;0.47;;;6.80;99.90;;;;;;5049193;28;20036;-76
2023/03/10 10:28:45;;;;;;;0.60;0.60;;;7.00;99.90;;;;;;5039924;28;20272;-76
2023/03/10 10:31:20;;;;;;;1.15;1.15;;;7.10;99.90;;;;;;5056832;28;20021;-76
2023/03/10 10:33:54;;;;;;;0.30;0.30;;;7.10;99.90;;;;;;5038591;28;20478;-76
2023/03/10 10:36:21;;;;;;;0.68;0.68;;;7.50;99.90;;;;;;5055995;28;20074;-76
2023/03/10 10:38:54;;;;;;;0.40;0.40;;;7.80;99.90;;;;;;5055760;28;20483;-76
2023/03/10 10:41:31;;;;;;;0.28;0.28;;;8.20;99.90;;;;;;5056265;28;20033;-76
2023/03/10 10:44:05;;;;;;;0.60;0.60;;;7.90;99.90;;;;;;5056167;28;20441;-76
2023/03/10 10:46:31;;;;;;;0.30;0.30;;;7.90;99.90;;;;;;5037640;28;20060;-76
2023/03/10 10:49:06;;;;;;;0.20;0.20;;;7.90;99.90;;;;;;5037471;28;20398;-76
2023/03/10 10:51:34;;;;;;;0.65;0.65;;;7.90;99.90;;;;;;5055668;28;20079;-76
2023/03/10 10:54:27;;;;;;;0.40;0.40;;;8.00;99.90;;;;;;5055344;28;20025;-76
2023/03/10 10:57:00;;;;;;;0.30;0.30;;;7.80;99.90;;;;;;5034325;28;20402;-76
2023/03/10 10:59:28;;;;;;;0.20;0.20;;;7.90;99.90;;;;;;5055417;28;20104;-76
2023/03/10 11:02:02;;;;;;;0.20;0.20;;;8.30;99.90;;;;;;5055102;28;20398;-76
2023/03/10 11:04:41;;;;;;;0.28;0.28;;;8.50;99.90;;;;;;5055128;28;20087;-76
2023/03/10 11:07:16;;;;;;;0.20;0.20;;;8.40;99.90;;;;;;5037336;28;20082;-76
2023/03/10 11:09:41;;;;;;;0.20;0.20;;;8.70;99.90;;;;;;5054934;28;20028;-76
2023/03/10 11:12:26;;;;;;;0.20;0.20;;;8.70;99.90;;;;;;5037129;28;20021;-76
2023/03/10 11:15:05;;;;;;;0.20;0.20;;;9.10;99.90;;;;;;5055236;28;20378;-76
2023/03/10 11:17:57;;;;;;;0.20;0.20;;;9.50;99.90;;;;;;5036792;28;20389;-76
2023/03/10 11:20:50;;;;;;;0.20;0.20;;;9.80;99.90;;;;;;5048955;28;20086;-76
2023/03/10 11:23:48;;;;;;;0.20;0.20;;;9.60;99.90;;;;;;5036940;28;20047;-76
2023/03/10 11:26:45;;;;;;;0.20;0.20;;;9.90;99.90;;;;;;5054705;28;20017;-76
2023/03/10 11:29:18;;;;;;;0.25;0.25;;;9.90;99.90;;;;;;5055070;28;20371;-76
2023/03/10 11:32:07;;;;;;;0.22;0.22;;;10.10;99.90;;;;;;5036616;28;20031;-76
2023/03/10 11:34:39;;;;;;;0.20;0.20;;;10.30;99.90;;;;;;5054446;28;20032;-76
2023/03/10 11:37:29;;;;;;;0.20;0.20;;;10.50;99.90;;;;;;5055036;28;20013;-76
2023/03/10 11:40:06;;;;;;;0.20;0.20;;;10.50;99.90;;;;;;5036457;28;20017;-75
2023/03/10 11:42:49;;;;;;;0.20;0.20;;;10.00;99.90;;;;;;5036452;28;20031;-76
2023/03/10 11:45:36;;;;;;;0.20;0.20;;;9.80;99.90;;;;;;5036392;28;20032;-76
2023/03/10 11:48:33;;;;;;;0.20;0.20;;;9.30;99.90;;;;;;5054164;28;20025;-76
2023/03/10 11:51:02;;;;;;;0.20;0.20;;;9.00;99.90;;;;;;5054335;28;20078;-76
2023/03/10 11:53:48;;;;;;;0.20;0.20;;;8.50;99.90;;;;;;5054255;28;20018;-76
2023/03/10 11:56:16;;;;;;;0.20;0.20;;;8.30;99.90;;;;;;5054311;28;20025;-76
2023/03/10 11:58:50;;;;;;;0.20;0.20;;;8.50;99.90;;;;;;5036066;28;20032;-76
2023/03/10 12:01:42;;;;;;;0.20;0.20;;;9.30;99.90;;;;;;5054065;28;20104;-76
2023/03/10 12:04:21;;;;;;;0.20;0.20;;;9.90;99.90;;;;;;5053794;28;20041;-76
2023/03/10 12:07:02;;;;;;;0.15;0.15;;;9.40;99.90;;;;;;5054484;28;20028;-76
2023/03/10 12:09:45;;;;;;;0.20;0.20;;;8.70;99.90;;;;;;5035758;28;20111;-76
2023/03/10 12:12:42;;;;;;;0.20;0.20;;;8.20;99.90;;;;;;5035931;28;20032;-76
2023/03/10 12:15:23;;;;;;;0.20;0.20;;;7.60;99.90;;;;;;5045497;28;20470;-75
2023/03/10 12:17:51;;;;;;;0.20;0.20;;;7.20;99.90;;;;;;5053812;28;20025;-76
2023/03/10 12:20:17;;;;;;;0.20;0.20;;;7.00;99.90;;;;;;5053771;28;20027;-75
2023/03/10 12:23:00;;;;;;;0.30;0.30;;;6.70;99.90;;;;;;5035953;28;20021;-75
2023/03/10 12:25:40;;;;;;;0.20;0.20;;;6.40;99.90;;;;;;5053908;28;20037;-76
2023/03/10 12:28:15;;;;;;;0.20;0.20;;;6.10;99.90;;;;;;5053485;28;20303;-76
2023/03/10 12:31:07;;;;;;;0.15;0.15;;;6.00;99.90;;;;;;5053866;28;20025;-76
2023/03/10 12:33:33;;;;;;;0.20;0.20;;;6.10;99.90;;;;;;5053782;28;20505;-76
2023/03/10 12:36:08;;;;;;;0.20;0.20;;;6.30;99.90;;;;;;5035503;28;20033;-76
2023/03/10 12:38:56;;;;;;;0.20;0.20;;;6.20;99.90;;;;;;5053621;28;20029;-76
2023/03/10 12:41:25;;;;;;;0.20;0.20;;;6.20;99.90;;;;;;5035694;28;20032;-76
2023/03/10 12:44:05;;;;;;;0.20;0.20;;;6.10;99.90;;;;;;5053737;28;20414;-76
2023/03/10 12:46:53;;;;;;;0.20;0.20;;;6.30;99.90;;;;;;5035645;28;20041;-76
2023/03/10 12:49:37;;;;;;;0.20;0.20;;;6.50;99.90;;;;;;5053229;28;20082;-76
2023/03/10 12:52:06;;;;;;;0.20;0.20;;;6.80;99.90;;;;;;5035548;28;20028;-76
2023/03/10 12:54:51;;;;;;;0.20;0.20;;;6.90;99.90;;;;;;5053845;28;20088;-76
2023/03/10 12:57:35;;;;;;;0.30;0.30;;;6.90;99.90;;;;;;5053941;28;20078;-76
2023/03/10 13:00:00;;;;;;;;;;;6.80;99.90;;;;;;5053769;28;20024;-76
2023/03/10 13:02:52;;;;;;;0.20;0.20;;;6.50;99.90;;;;;;5053546;28;19995;-76